createdAt,value
2019-03-20T00:00:44.380Z,8.03
2019-03-20T00:03:13.424Z,7.07
2019-03-20T00:05:42.724Z,7.00
2019-03-20T00:08:11.573Z,6.13
2019-03-20T00:10:40.607Z,6.73
2019-03-20T00:13:09.538Z,6.27
2019-03-20T00:15:38.669Z,6.63
2019-03-20T00:18:07.493Z,5.37
2019-03-20T00:20:36.391Z,6.30
2019-03-20T00:23:05.312Z,5.43
2019-03-20T00:25:34.496Z,6.23
2019-03-20T00:28:03.430Z,5.50
2019-03-20T00:30:32.393Z,6.53
2019-03-20T00:33:01.240Z,5.13
2019-03-20T00:35:30.194Z,5.87
2019-03-20T00:37:59.064Z,5.73
2019-03-20T00:40:27.925Z,5.30
2019-03-20T00:42:56.755Z,5.73
2019-03-20T00:45:25.579Z,6.20
2019-03-20T00:47:54.377Z,6.07
2019-03-20T00:50:23.248Z,5.83
2019-03-20T00:52:52.090Z,6.23
2019-03-20T00:55:21.152Z,6.10
2019-03-20T00:57:50.025Z,5.53
2019-03-20T01:00:19.313Z,5.50
2019-03-20T01:02:48.275Z,6.20
2019-03-20T01:05:17.180Z,5.40
2019-03-20T01:07:46.232Z,6.03
2019-03-20T01:10:58.277Z,6.17
2019-03-20T01:13:27.224Z,5.83
2019-03-20T01:15:56.059Z,5.90
2019-03-20T01:18:24.972Z,6.40
2019-03-20T01:20:53.853Z,6.10
2019-03-20T01:23:22.741Z,5.83
2019-03-20T01:25:51.624Z,6.57
2019-03-20T01:28:20.455Z,5.93
2019-03-20T01:30:49.359Z,5.50
2019-03-20T01:33:18.608Z,6.00
2019-03-20T01:35:47.391Z,5.90
2019-03-20T01:38:16.262Z,6.17
2019-03-20T01:40:45.132Z,6.37
2019-03-20T01:43:50.549Z,6.20
2019-03-20T01:46:38.432Z,6.80
2019-03-20T01:49:25.735Z,6.00
2019-03-20T01:51:53.553Z,7.05
2019-03-20T01:54:41.724Z,5.57
2019-03-20T02:00:51.354Z,6.53
2019-03-20T02:07:14.394Z,7.17
2019-03-20T02:10:02.497Z,5.97
2019-03-20T02:12:50.693Z,6.07
2019-03-20T02:15:39.776Z,7.97
2019-03-20T02:18:09.486Z,5.97
2019-03-20T02:24:26.059Z,5.43
2019-03-20T02:27:07.231Z,6.10
2019-03-20T02:29:48.137Z,5.73
2019-03-20T02:32:29.114Z,6.40
2019-03-20T02:35:09.612Z,5.87
2019-03-20T02:37:50.951Z,5.97
2019-03-20T02:40:31.531Z,6.10
2019-03-20T02:43:00.430Z,5.93
2019-03-20T02:45:48.554Z,5.50
2019-03-20T02:48:36.717Z,5.37
2019-03-20T02:51:24.877Z,5.87
2019-03-20T02:54:13.158Z,5.90
2019-03-20T02:56:42.145Z,6.10
2019-03-20T02:59:30.440Z,6.57
2019-03-20T03:02:18.588Z,6.58
2019-03-20T03:04:47.580Z,6.67
2019-03-20T03:07:35.783Z,6.00
2019-03-20T03:10:23.853Z,5.90
2019-03-20T03:13:12.096Z,5.70
2019-03-20T03:15:41.146Z,5.80
2019-03-20T03:18:29.201Z,6.17
2019-03-20T03:21:17.278Z,7.50
2019-03-20T03:24:05.555Z,6.63
2019-03-20T03:26:34.814Z,6.33
2019-03-20T03:29:03.677Z,6.23
2019-03-20T03:34:39.801Z,7.43
2019-03-20T03:37:28.015Z,6.70
2019-03-20T03:40:16.284Z,5.40
2019-03-20T03:43:04.452Z,5.97
2019-03-20T03:45:52.633Z,5.47
2019-03-20T03:48:40.714Z,5.57
2019-03-20T03:51:28.867Z,5.30
2019-03-20T03:54:17.101Z,5.33
2019-03-20T03:57:05.251Z,5.57
2019-03-20T03:59:53.479Z,5.87
2019-03-20T04:02:41.655Z,5.37
2019-03-20T04:05:29.862Z,6.67
2019-03-20T04:08:18.090Z,13.87
2019-03-20T04:11:06.558Z,11.40
2019-03-20T04:13:54.814Z,8.23
2019-03-20T04:16:42.990Z,9.63
2019-03-20T04:19:31.274Z,7.37
2019-03-20T04:22:19.528Z,6.50
2019-03-20T04:24:48.430Z,6.60
2019-03-20T04:27:28.943Z,6.70
2019-03-20T04:30:09.527Z,7.57
2019-03-20T04:32:50.068Z,8.70
2019-03-20T04:35:30.636Z,9.43
2019-03-20T04:38:11.287Z,9.77
2019-03-20T04:40:52.171Z,10.10
2019-03-20T04:43:33.605Z,7.30
2019-03-20T04:46:14.792Z,8.33
2019-03-20T04:48:55.655Z,6.97
2019-03-20T04:51:36.258Z,7.17
2019-03-20T04:54:16.849Z,6.97
2019-03-20T04:56:45.840Z,7.37
2019-03-20T04:59:34.049Z,6.70
2019-03-20T05:02:03.184Z,7.47
2019-03-20T05:04:32.127Z,7.17
2019-03-20T05:07:20.480Z,8.20
2019-03-20T05:10:09.691Z,6.83
2019-03-20T05:12:58.047Z,7.13
2019-03-20T05:15:46.150Z,6.90
2019-03-20T05:18:34.399Z,6.33
2019-03-20T05:21:03.477Z,6.90
2019-03-20T05:23:51.622Z,6.53
2019-03-20T05:26:39.776Z,6.50
2019-03-20T05:29:20.414Z,6.13
2019-03-20T05:32:01.480Z,6.23
2019-03-20T05:34:42.880Z,5.77
2019-03-20T05:37:23.329Z,6.90
2019-03-20T05:40:04.163Z,6.20
2019-03-20T05:42:44.934Z,7.43
2019-03-20T05:45:25.660Z,8.03
2019-03-20T05:48:06.287Z,9.53
2019-03-20T05:50:47.182Z,8.57
2019-03-20T05:53:28.382Z,7.90
2019-03-20T05:56:09.630Z,6.57
2019-03-20T05:58:50.290Z,6.27
2019-03-20T06:01:30.996Z,6.40
2019-03-20T06:04:12.002Z,6.23
2019-03-20T06:06:53.078Z,8.20
2019-03-20T06:09:33.939Z,12.50
2019-03-20T06:12:14.663Z,13.05
2019-03-20T06:14:55.397Z,8.70
2019-03-20T06:17:36.435Z,8.10
2019-03-20T06:20:17.270Z,6.83
2019-03-20T06:22:57.961Z,6.90
2019-03-20T06:25:39.018Z,5.90
2019-03-20T06:28:20.389Z,5.97
2019-03-20T06:31:00.824Z,5.73
2019-03-20T06:33:42.030Z,5.33
2019-03-20T06:36:22.543Z,5.80
2019-03-20T06:39:01.697Z,5.30
2019-03-20T06:41:49.833Z,22.53
2019-03-20T06:44:37.906Z,40.30
2019-03-20T06:47:26.093Z,20.30
2019-03-20T06:50:14.512Z,17.53
2019-03-20T06:53:02.675Z,11.40
2019-03-20T06:55:50.752Z,7.07
2019-03-20T06:58:19.578Z,5.60
2019-03-20T07:01:26.905Z,5.90
2019-03-20T07:04:21.083Z,6.70
2019-03-20T07:07:10.929Z,5.97
2019-03-20T07:10:18.223Z,6.60
2019-03-20T07:13:06.374Z,25.23
2019-03-20T07:15:54.533Z,9.00
2019-03-20T07:21:49.710Z,12.20
2019-03-20T07:24:30.409Z,16.07
2019-03-20T07:27:10.906Z,10.00
2019-03-20T07:29:51.777Z,14.53
2019-03-20T07:32:33.047Z,7.53
2019-03-20T07:35:13.810Z,13.53
2019-03-20T07:37:56.242Z,13.50
2019-03-20T07:43:22.798Z,9.20
2019-03-20T07:46:03.479Z,7.77
2019-03-20T07:48:44.660Z,8.70
2019-03-20T07:51:25.290Z,9.27
2019-03-20T07:54:06.048Z,11.07
2019-03-20T07:56:46.776Z,7.97
2019-03-20T07:59:27.510Z,6.50
2019-03-20T08:02:08.401Z,6.90
2019-03-20T08:04:48.770Z,8.17
2019-03-20T08:07:29.651Z,6.27
2019-03-20T08:09:58.573Z,5.97
2019-03-20T08:12:46.742Z,5.73
2019-03-20T08:15:34.885Z,5.43
2019-03-20T08:18:42.487Z,6.03
2019-03-20T08:21:30.669Z,5.50
2019-03-20T08:24:12.036Z,4.97
2019-03-20T08:26:52.986Z,5.27
2019-03-20T08:29:33.501Z,5.93
2019-03-20T08:32:14.219Z,5.50
2019-03-20T08:34:55.149Z,4.63
2019-03-20T08:37:35.977Z,5.27
2019-03-20T08:40:16.587Z,5.03
2019-03-20T08:42:57.247Z,6.20
2019-03-20T08:45:38.481Z,4.97
2019-03-20T08:48:18.995Z,5.20
2019-03-20T08:50:59.719Z,5.57
2019-03-20T08:53:40.449Z,5.23
2019-03-20T08:56:21.398Z,4.87
2019-03-20T08:59:02.471Z,6.17
2019-03-20T09:01:43.373Z,6.17
2019-03-20T09:04:24.546Z,5.10
2019-03-20T09:07:05.188Z,6.50
2019-03-20T09:09:45.907Z,5.40
2019-03-20T09:12:26.536Z,5.85
2019-03-20T09:15:06.870Z,5.30
2019-03-20T09:17:47.727Z,6.70
2019-03-20T09:20:28.510Z,5.97
2019-03-20T09:23:09.415Z,6.57
2019-03-20T09:25:38.405Z,5.83
2019-03-20T09:28:26.721Z,7.57
2019-03-20T09:31:14.813Z,6.27
2019-03-20T09:34:03.009Z,5.00
2019-03-20T09:36:51.270Z,5.53
2019-03-20T09:39:39.360Z,5.17
2019-03-20T09:42:08.408Z,6.20
2019-03-20T09:44:56.521Z,5.93
2019-03-20T09:47:44.693Z,6.33
2019-03-20T09:50:32.754Z,4.57
2019-03-20T09:53:20.938Z,4.17
2019-03-20T09:56:09.050Z,7.70
2019-03-20T09:58:57.229Z,4.30
2019-03-20T10:01:45.407Z,4.30
2019-03-20T10:04:33.466Z,6.67
2019-03-20T10:07:21.513Z,6.97
2019-03-20T10:10:10.105Z,5.87
2019-03-20T10:12:58.258Z,6.03
2019-03-20T10:15:46.392Z,5.60
2019-03-20T10:18:34.526Z,5.80
2019-03-20T10:21:22.615Z,6.20
2019-03-20T10:24:03.158Z,8.33
2019-03-20T10:26:43.828Z,10.50
2019-03-20T10:29:24.830Z,8.80
2019-03-20T10:32:05.286Z,10.97
2019-03-20T10:34:46.094Z,8.80
2019-03-20T10:37:27.340Z,9.67
2019-03-20T10:40:07.877Z,8.70
2019-03-20T10:42:48.382Z,13.67
2019-03-20T10:45:29.291Z,9.63
2019-03-20T10:48:10.029Z,10.37
2019-03-20T10:50:39.169Z,11.03
2019-03-20T10:53:27.253Z,7.43
2019-03-20T10:56:15.462Z,8.13
2019-03-20T10:59:03.643Z,8.55
2019-03-20T11:01:51.825Z,9.43
2019-03-20T11:04:39.949Z,12.20
2019-03-20T11:07:28.108Z,9.53
2019-03-20T11:10:17.294Z,9.37
2019-03-20T11:13:05.457Z,13.87
2019-03-20T11:15:53.580Z,12.60
2019-03-20T11:18:41.674Z,15.37
2019-03-20T11:21:29.788Z,10.60
2019-03-20T11:24:10.757Z,14.80
2019-03-20T11:26:51.078Z,14.37
2019-03-20T11:29:33.370Z,10.80
2019-03-20T11:32:14.476Z,14.17
2019-03-20T11:34:55.784Z,17.47
2019-03-20T11:37:36.705Z,9.83
2019-03-20T11:40:17.630Z,23.37
2019-03-20T11:45:40.479Z,11.93
2019-03-20T11:48:20.822Z,10.90
2019-03-20T11:51:01.830Z,9.63
2019-03-20T11:53:42.697Z,10.27
2019-03-20T11:56:23.542Z,19.37
2019-03-20T11:59:04.314Z,15.77
2019-03-20T12:01:33.406Z,16.40
2019-03-20T12:04:21.515Z,9.90
2019-03-20T12:07:09.790Z,11.60
2019-03-20T12:09:59.851Z,12.77
2019-03-20T12:12:48.028Z,14.37
2019-03-20T12:15:36.169Z,11.33
2019-03-20T12:18:24.328Z,15.93
2019-03-20T12:21:12.572Z,13.50
2019-03-20T12:24:00.731Z,16.43
2019-03-20T12:26:41.847Z,20.50
2019-03-20T12:29:23.167Z,13.40
2019-03-20T12:32:04.452Z,19.67
2019-03-20T12:34:45.752Z,17.03
2019-03-20T12:37:26.217Z,15.00
2019-03-20T12:40:07.724Z,15.17
2019-03-20T12:42:49.162Z,19.73
2019-03-20T12:45:30.432Z,18.03
2019-03-20T12:47:59.506Z,16.90
2019-03-20T12:50:47.639Z,15.60
2019-03-20T12:53:36.294Z,24.50
2019-03-20T12:56:24.573Z,17.63
2019-03-20T12:59:12.736Z,25.77
2019-03-20T13:02:00.960Z,21.80
2019-03-20T13:04:49.109Z,17.90
2019-03-20T13:07:37.377Z,25.57
2019-03-20T13:10:25.775Z,23.20
2019-03-20T13:13:13.941Z,16.60
2019-03-20T13:16:02.220Z,18.27
2019-03-20T13:18:50.459Z,16.50
2019-03-20T13:21:38.646Z,18.50
2019-03-20T13:24:26.992Z,16.77
2019-03-20T13:27:15.318Z,18.37
2019-03-20T13:29:56.681Z,16.53
2019-03-20T13:32:37.837Z,16.40
2019-03-20T13:35:20.059Z,14.20
2019-03-20T13:38:00.714Z,16.80
2019-03-20T13:40:41.704Z,15.83
2019-03-20T13:43:22.986Z,14.87
2019-03-20T13:46:04.334Z,15.80
2019-03-20T13:51:27.726Z,14.70
2019-03-20T13:53:56.597Z,14.33
2019-03-20T13:56:25.477Z,14.23
2019-03-20T13:58:54.329Z,12.17
2019-03-20T14:01:23.141Z,12.90
2019-03-20T14:03:52.008Z,12.83
2019-03-20T14:06:20.860Z,11.43
2019-03-20T14:08:49.722Z,12.83
2019-03-20T14:11:18.719Z,11.43
2019-03-20T14:13:47.738Z,11.80
2019-03-20T14:16:16.557Z,13.13
2019-03-20T14:18:45.471Z,13.20
2019-03-20T14:21:14.593Z,22.23
2019-03-20T14:23:43.506Z,13.77
2019-03-20T14:26:12.513Z,13.33
2019-03-20T14:28:41.383Z,14.93
2019-03-20T14:31:14.178Z,11.93
2019-03-20T14:33:43.068Z,13.23
2019-03-20T14:36:11.950Z,16.43
2019-03-20T14:38:40.769Z,14.20
2019-03-20T14:41:09.636Z,16.62
2019-03-20T14:43:38.511Z,15.33
2019-03-20T14:46:07.377Z,14.57
2019-03-20T14:48:36.226Z,15.10
2019-03-20T14:51:04.583Z,14.40
2019-03-20T14:53:33.005Z,14.10
2019-03-20T14:56:01.451Z,14.67
2019-03-20T14:58:29.954Z,13.20
2019-03-20T15:00:58.354Z,13.47
2019-03-20T15:03:26.804Z,16.13
2019-03-20T15:05:55.245Z,15.33
2019-03-20T15:08:23.735Z,21.37
2019-03-20T15:10:52.284Z,20.15
2019-03-20T15:13:20.677Z,17.57
2019-03-20T15:15:51.276Z,16.90
2019-03-20T15:18:19.657Z,18.27
2019-03-20T15:20:48.088Z,16.13
2019-03-20T15:23:16.436Z,15.83
2019-03-20T15:25:44.840Z,16.30
2019-03-20T15:28:13.278Z,18.87
2019-03-20T15:30:41.678Z,16.37
2019-03-20T15:33:10.060Z,15.73
2019-03-20T15:35:38.508Z,15.73
2019-03-20T15:38:06.929Z,15.73
2019-03-20T15:40:35.500Z,20.70
2019-03-20T15:43:03.930Z,20.43
2019-03-20T15:45:48.279Z,17.27
2019-03-20T15:48:10.992Z,18.87
2019-03-20T15:50:39.364Z,20.23
2019-03-20T15:53:07.765Z,17.27
2019-03-20T15:55:36.157Z,15.90
2019-03-20T15:58:04.610Z,16.37
2019-03-20T16:00:33.052Z,13.37
2019-03-20T16:03:02.813Z,15.53
2019-03-20T16:05:31.236Z,17.00
2019-03-20T16:07:59.705Z,15.53
2019-03-20T16:10:28.087Z,13.70
2019-03-20T16:12:56.470Z,12.80
2019-03-20T16:15:24.973Z,19.53
2019-03-20T16:17:53.392Z,22.13
2019-03-20T16:20:21.886Z,17.20
2019-03-20T16:22:50.261Z,14.93
2019-03-20T16:25:18.686Z,14.07
2019-03-20T16:27:47.069Z,13.23
2019-03-20T16:30:18.875Z,13.33
2019-03-20T16:32:47.382Z,15.77
2019-03-20T16:35:15.872Z,13.63
2019-03-20T16:37:45.592Z,14.50
2019-03-20T16:40:17.587Z,13.53
2019-03-20T16:42:45.967Z,13.70
2019-03-20T16:45:15.665Z,13.13
2019-03-20T16:47:44.039Z,13.73
2019-03-20T16:50:12.838Z,13.70
2019-03-20T16:52:41.203Z,13.57
2019-03-20T16:55:10.040Z,13.77
2019-03-20T16:57:38.932Z,13.68
2019-03-20T17:00:09.132Z,14.43
2019-03-20T17:02:37.861Z,14.13
2019-03-20T17:05:06.854Z,12.90
2019-03-20T17:07:35.327Z,13.97
2019-03-20T17:10:04.322Z,15.97
2019-03-20T17:12:32.717Z,17.23
2019-03-20T17:15:01.108Z,16.20
2019-03-20T17:17:29.507Z,15.20
2019-03-20T17:20:14.674Z,15.50
2019-03-20T17:22:43.335Z,15.57
2019-03-20T17:25:12.079Z,14.63
2019-03-20T17:27:40.440Z,16.80
2019-03-20T17:30:11.163Z,15.30
2019-03-20T17:32:39.936Z,14.90
2019-03-20T17:35:08.635Z,15.60
2019-03-20T17:37:37.325Z,15.80
2019-03-20T17:40:09.793Z,19.43
2019-03-20T17:42:41.554Z,17.80
2019-03-20T17:45:10.623Z,17.60
2019-03-20T17:47:43.421Z,19.00
2019-03-20T17:50:14.249Z,16.37
2019-03-20T17:52:45.699Z,15.93
2019-03-20T17:55:17.442Z,23.60
2019-03-20T17:57:51.769Z,33.73
2019-03-20T18:00:24.569Z,21.57
2019-03-20T18:02:54.987Z,21.53
2019-03-20T18:05:23.126Z,27.83
2019-03-20T18:07:52.625Z,50.87
2019-03-20T18:10:21.114Z,34.93
2019-03-20T18:12:49.593Z,32.60
2019-03-20T18:15:18.276Z,26.70
2019-03-20T18:17:47.619Z,33.17
2019-03-20T18:20:16.123Z,35.30
2019-03-20T18:22:44.604Z,34.00
2019-03-20T18:25:13.154Z,31.33
2019-03-20T18:27:42.247Z,28.77
2019-03-20T18:30:14.481Z,23.83
2019-03-20T18:32:42.952Z,31.33
2019-03-20T18:35:12.647Z,28.90
2019-03-20T18:37:41.164Z,40.80
2019-03-20T18:40:10.175Z,42.03
2019-03-20T18:42:38.628Z,42.40
2019-03-20T18:45:07.059Z,43.43
2019-03-20T18:47:36.501Z,29.17
2019-03-20T18:50:04.962Z,28.67
2019-03-20T18:52:33.389Z,21.97
2019-03-20T18:55:01.893Z,25.87
2019-03-20T18:57:30.437Z,17.90
2019-03-20T18:59:58.865Z,18.97
2019-03-20T19:02:27.309Z,20.37
2019-03-20T19:04:55.699Z,23.83
2019-03-20T19:07:24.251Z,21.20
2019-03-20T19:09:52.852Z,21.13
2019-03-20T19:12:24.539Z,21.80
2019-03-20T19:14:53.041Z,20.97
2019-03-20T19:17:23.538Z,21.13
2019-03-20T19:19:52.002Z,22.00
2019-03-20T19:22:20.522Z,24.00
2019-03-20T19:24:48.989Z,25.50
2019-03-20T19:27:17.352Z,28.30
2019-03-20T19:29:45.750Z,24.47
2019-03-20T19:32:14.106Z,23.90
2019-03-20T19:34:42.612Z,29.33
2019-03-20T19:37:10.995Z,36.90
2019-03-20T19:39:39.370Z,48.60
2019-03-20T19:42:07.757Z,32.10
2019-03-20T19:44:36.129Z,42.97
2019-03-20T19:47:04.595Z,42.73
2019-03-20T19:49:32.951Z,40.13
2019-03-20T19:52:01.317Z,34.00
2019-03-20T19:54:29.872Z,33.27
2019-03-20T19:56:58.223Z,30.97
2019-03-20T19:59:26.572Z,23.90
2019-03-20T20:01:54.979Z,40.97
2019-03-20T20:04:23.418Z,38.73
2019-03-20T20:06:51.871Z,41.97
2019-03-20T20:09:20.507Z,53.10
2019-03-20T20:11:49.206Z,94.30
2019-03-20T20:14:27.862Z,44.50
2019-03-20T20:16:56.444Z,41.87
2019-03-20T20:19:24.841Z,39.70
2019-03-20T20:21:53.225Z,30.93
2019-03-20T20:24:21.613Z,31.10
2019-03-20T20:26:50.011Z,30.57
2019-03-20T20:29:18.410Z,38.23
2019-03-20T20:31:46.928Z,30.47
2019-03-20T20:34:15.363Z,41.53
2019-03-20T20:36:46.847Z,36.17
2019-03-20T20:39:18.278Z,30.70
2019-03-20T20:41:47.261Z,30.07
2019-03-20T20:44:15.873Z,23.83
2019-03-20T20:46:44.367Z,31.63
2019-03-20T20:49:12.813Z,23.97
2019-03-20T20:51:41.211Z,22.13
2019-03-20T20:54:09.646Z,27.77
2019-03-20T20:56:38.077Z,30.90
2019-03-20T20:59:06.449Z,29.67
2019-03-20T21:01:34.836Z,25.77
2019-03-20T21:04:03.251Z,23.20
2019-03-20T21:06:31.681Z,24.73
2019-03-20T21:09:00.137Z,29.90
2019-03-20T21:11:28.573Z,38.07
2019-03-20T21:13:56.925Z,34.23
2019-03-20T21:16:25.619Z,27.50
2019-03-20T21:19:16.636Z,28.13
2019-03-20T21:22:13.714Z,26.47
2019-03-20T21:24:42.457Z,26.17
2019-03-20T21:27:30.116Z,26.70
2019-03-20T21:30:20.040Z,27.93
2019-03-20T21:32:48.805Z,28.67
2019-03-20T21:35:25.561Z,24.67
2019-03-20T21:38:10.519Z,27.47
2019-03-20T21:40:54.858Z,32.33
2019-03-20T21:43:54.860Z,23.63
2019-03-20T21:47:01.012Z,24.03
2019-03-20T21:49:29.706Z,32.83
2019-03-20T21:51:58.317Z,28.33
2019-03-20T21:54:41.776Z,26.00
2019-03-20T21:57:29.370Z,23.17
2019-03-20T22:00:08.297Z,20.63
2019-03-20T22:02:43.106Z,22.53
2019-03-20T22:05:22.822Z,26.23
2019-03-20T22:07:44.568Z,24.67
2019-03-20T22:10:30.913Z,21.57
2019-03-20T22:13:18.604Z,19.77
2019-03-20T22:15:50.481Z,29.07
2019-03-20T22:18:38.172Z,25.13
2019-03-20T22:21:20.900Z,21.97
2019-03-20T22:23:56.861Z,18.43
2019-03-20T22:26:42.777Z,18.63
2019-03-20T22:29:24.286Z,17.67
2019-03-20T22:32:21.168Z,20.90
2019-03-20T22:35:08.824Z,20.40
2019-03-20T22:37:37.641Z,19.13
2019-03-20T22:40:25.765Z,20.73
2019-03-20T22:42:56.643Z,20.83
2019-03-20T22:45:56.573Z,17.30
2019-03-20T22:48:46.928Z,18.60
2019-03-20T22:51:24.066Z,18.77
2019-03-20T22:54:10.285Z,17.53
2019-03-20T22:57:10.118Z,18.17
2019-03-20T22:59:38.883Z,18.20
2019-03-20T23:02:15.438Z,16.20
2019-03-20T23:04:45.905Z,16.23
2019-03-20T23:07:14.651Z,16.97
2019-03-20T23:09:43.396Z,16.43
2019-03-20T23:12:13.124Z,17.70
2019-03-20T23:14:41.874Z,17.23
2019-03-20T23:17:10.622Z,17.67
2019-03-20T23:19:39.478Z,17.93
2019-03-20T23:22:08.552Z,16.77
2019-03-20T23:24:37.188Z,18.87
2019-03-20T23:27:07.256Z,18.43
2019-03-20T23:29:35.921Z,17.37
2019-03-20T23:32:04.609Z,16.17
2019-03-20T23:34:33.269Z,15.50
2019-03-20T23:37:02.109Z,17.03
2019-03-20T23:39:30.833Z,17.33
2019-03-20T23:41:59.606Z,17.13
2019-03-20T23:44:28.236Z,17.60
2019-03-20T23:46:56.898Z,18.33
2019-03-20T23:49:25.549Z,18.53
2019-03-20T23:51:54.188Z,20.25
2019-03-20T23:54:24.752Z,19.00
2019-03-20T23:56:53.459Z,17.47
2019-03-20T23:59:22.088Z,19.33
